sensor_id;sensor_type;location;lat;lon;timestamp;P1;durP1;ratioP1;P2;durP2;ratioP2
43038;SDS011;62252;50.668;19.530;2022-11-15T00:02:23;423.65;;;381.20;;
43038;SDS011;62252;50.668;19.530;2022-11-15T00:05:15;438.63;;;393.80;;
43038;SDS011;62252;50.668;19.530;2022-11-15T00:08:07;437.30;;;393.35;;
43038;SDS011;62252;50.668;19.530;2022-11-15T00:11:02;412.02;;;370.88;;
43038;SDS011;62252;50.668;19.530;2022-11-15T00:13:54;412.10;;;370.25;;
43038;SDS011;62252;50.668;19.530;2022-11-15T00:16:47;412.33;;;370.13;;
43038;SDS011;62252;50.668;19.530;2022-11-15T00:19:39;430.13;;;386.88;;
43038;SDS011;62252;50.668;19.530;2022-11-15T00:22:31;433.83;;;390.38;;
43038;SDS011;62252;50.668;19.530;2022-11-15T00:25:26;428.90;;;385.35;;
43038;SDS011;62252;50.668;19.530;2022-11-15T00:28:20;410.85;;;369.60;;
43038;SDS011;62252;50.668;19.530;2022-11-15T00:31:12;415.40;;;373.40;;
43038;SDS011;62252;50.668;19.530;2022-11-15T00:34:05;425.42;;;381.80;;
43038;SDS011;62252;50.668;19.530;2022-11-15T00:36:56;434.65;;;391.30;;
43038;SDS011;62252;50.668;19.530;2022-11-15T00:39:48;431.48;;;388.67;;
43038;SDS011;62252;50.668;19.530;2022-11-15T00:42:40;443.45;;;398.38;;
43038;SDS011;62252;50.668;19.530;2022-11-15T00:45:37;412.13;;;370.48;;
43038;SDS011;62252;50.668;19.530;2022-11-15T00:48:29;408.33;;;366.83;;
43038;SDS011;62252;50.668;19.530;2022-11-15T00:51:21;402.30;;;361.63;;
43038;SDS011;62252;50.668;19.530;2022-11-15T00:54:13;413.10;;;371.38;;
43038;SDS011;62252;50.668;19.530;2022-11-15T00:57:05;433.98;;;391.33;;
43038;SDS011;62252;50.668;19.530;2022-11-15T00:59:56;431.77;;;389.05;;
43038;SDS011;62252;50.668;19.530;2022-11-15T01:02:53;449.08;;;404.80;;
43038;SDS011;62252;50.668;19.530;2022-11-15T01:05:45;433.15;;;390.60;;
43038;SDS011;62252;50.668;19.530;2022-11-15T01:08:36;416.05;;;374.60;;
43038;SDS011;62252;50.668;19.530;2022-11-15T01:11:29;422.67;;;379.20;;
43038;SDS011;62252;50.668;19.530;2022-11-15T01:14:21;413.35;;;371.73;;
43038;SDS011;62252;50.668;19.530;2022-11-15T01:17:13;409.30;;;367.90;;
43038;SDS011;62252;50.668;19.530;2022-11-15T01:20:08;457.60;;;412.35;;
43038;SDS011;62252;50.668;19.530;2022-11-15T01:25:52;427.52;;;385.35;;
43038;SDS011;62252;50.668;19.530;2022-11-15T01:28:49;425.98;;;383.83;;
43038;SDS011;62252;50.668;19.530;2022-11-15T01:31:42;432.00;;;388.00;;
43038;SDS011;62252;50.668;19.530;2022-11-15T01:34:33;428.20;;;384.77;;
43038;SDS011;62252;50.668;19.530;2022-11-15T01:37:27;424.17;;;381.35;;
43038;SDS011;62252;50.668;19.530;2022-11-15T01:40:19;426.48;;;382.02;;
43038;SDS011;62252;50.668;19.530;2022-11-15T01:43:23;432.73;;;388.67;;
43038;SDS011;62252;50.668;19.530;2022-11-15T01:46:21;413.10;;;369.85;;
43038;SDS011;62252;50.668;19.530;2022-11-15T01:49:20;420.90;;;377.08;;
43038;SDS011;62252;50.668;19.530;2022-11-15T01:52:16;425.90;;;381.80;;
43038;SDS011;62252;50.668;19.530;2022-11-15T01:55:13;429.60;;;384.65;;
43038;SDS011;62252;50.668;19.530;2022-11-15T01:58:09;427.48;;;384.00;;
43038;SDS011;62252;50.668;19.530;2022-11-15T02:01:01;425.42;;;381.80;;
43038;SDS011;62252;50.668;19.530;2022-11-15T02:03:56;438.88;;;393.67;;
43038;SDS011;62252;50.668;19.530;2022-11-15T02:06:50;421.77;;;378.58;;
43038;SDS011;62252;50.668;19.530;2022-11-15T02:09:43;410.10;;;368.35;;
43038;SDS011;62252;50.668;19.530;2022-11-15T02:12:39;403.52;;;361.48;;
43038;SDS011;62252;50.668;19.530;2022-11-15T02:15:33;418.10;;;374.27;;
43038;SDS011;62252;50.668;19.530;2022-11-15T02:18:32;421.45;;;378.55;;
43038;SDS011;62252;50.668;19.530;2022-11-15T02:21:29;426.88;;;383.52;;
43038;SDS011;62252;50.668;19.530;2022-11-15T02:24:47;438.27;;;394.10;;
43038;SDS011;62252;50.668;19.530;2022-11-15T02:27:57;437.70;;;394.02;;
43038;SDS011;62252;50.668;19.530;2022-11-15T02:31:07;418.63;;;375.80;;
43038;SDS011;62252;50.668;19.530;2022-11-15T02:34:10;405.63;;;363.27;;
43038;SDS011;62252;50.668;19.530;2022-11-15T02:37:14;404.17;;;362.33;;
43038;SDS011;62252;50.668;19.530;2022-11-15T02:40:11;423.27;;;379.48;;
43038;SDS011;62252;50.668;19.530;2022-11-15T02:43:09;421.58;;;379.75;;
43038;SDS011;62252;50.668;19.530;2022-11-15T02:46:23;432.95;;;389.90;;
43038;SDS011;62252;50.668;19.530;2022-11-15T02:49:33;420.98;;;378.40;;
43038;SDS011;62252;50.668;19.530;2022-11-15T02:52:26;421.15;;;378.33;;
43038;SDS011;62252;50.668;19.530;2022-11-15T02:55:27;414.88;;;372.45;;
43038;SDS011;62252;50.668;19.530;2022-11-15T02:58:36;432.20;;;387.90;;
43038;SDS011;62252;50.668;19.530;2022-11-15T03:01:51;423.70;;;380.45;;
43038;SDS011;62252;50.668;19.530;2022-11-15T03:04:56;431.65;;;387.38;;
43038;SDS011;62252;50.668;19.530;2022-11-15T03:07:54;424.30;;;380.77;;
43038;SDS011;62252;50.668;19.530;2022-11-15T03:10:53;437.52;;;393.88;;
43038;SDS011;62252;50.668;19.530;2022-11-15T03:13:57;442.33;;;398.02;;
43038;SDS011;62252;50.668;19.530;2022-11-15T03:16:58;452.42;;;407.88;;
43038;SDS011;62252;50.668;19.530;2022-11-15T03:20:00;427.30;;;383.40;;
43038;SDS011;62252;50.668;19.530;2022-11-15T03:22:55;443.25;;;397.58;;
43038;SDS011;62252;50.668;19.530;2022-11-15T03:28:45;434.15;;;389.70;;
43038;SDS011;62252;50.668;19.530;2022-11-15T03:31:42;448.70;;;403.70;;
43038;SDS011;62252;50.668;19.530;2022-11-15T03:34:40;438.65;;;393.45;;
43038;SDS011;62252;50.668;19.530;2022-11-15T03:37:35;419.55;;;376.17;;
43038;SDS011;62252;50.668;19.530;2022-11-15T03:40:33;417.85;;;374.20;;
43038;SDS011;62252;50.668;19.530;2022-11-15T03:43:30;429.55;;;384.85;;
43038;SDS011;62252;50.668;19.530;2022-11-15T03:46:28;439.38;;;393.80;;
43038;SDS011;62252;50.668;19.530;2022-11-15T03:49:27;421.77;;;377.95;;
43038;SDS011;62252;50.668;19.530;2022-11-15T03:52:25;414.15;;;370.70;;
43038;SDS011;62252;50.668;19.530;2022-11-15T03:55:18;406.65;;;363.75;;
43038;SDS011;62252;50.668;19.530;2022-11-15T03:58:11;419.25;;;374.67;;
43038;SDS011;62252;50.668;19.530;2022-11-15T04:01:02;402.38;;;359.50;;
43038;SDS011;62252;50.668;19.530;2022-11-15T04:03:54;425.85;;;382.13;;
43038;SDS011;62252;50.668;19.530;2022-11-15T04:06:45;434.60;;;389.50;;
43038;SDS011;62252;50.668;19.530;2022-11-15T04:09:40;429.60;;;385.45;;
43038;SDS011;62252;50.668;19.530;2022-11-15T04:12:44;443.80;;;399.20;;
43038;SDS011;62252;50.668;19.530;2022-11-15T04:15:36;439.00;;;394.65;;
43038;SDS011;62252;50.668;19.530;2022-11-15T04:18:28;454.35;;;408.33;;
43038;SDS011;62252;50.668;19.530;2022-11-15T04:21:19;430.33;;;386.55;;
43038;SDS011;62252;50.668;19.530;2022-11-15T04:24:23;447.92;;;403.05;;
43038;SDS011;62252;50.668;19.530;2022-11-15T04:27:19;443.40;;;398.27;;
43038;SDS011;62252;50.668;19.530;2022-11-15T04:30:11;434.10;;;389.15;;
43038;SDS011;62252;50.668;19.530;2022-11-15T04:33:03;426.08;;;381.75;;
43038;SDS011;62252;50.668;19.530;2022-11-15T04:35:57;428.88;;;384.55;;
43038;SDS011;62252;50.668;19.530;2022-11-15T04:39:01;447.80;;;402.20;;
43038;SDS011;62252;50.668;19.530;2022-11-15T04:41:53;436.58;;;391.90;;
43038;SDS011;62252;50.668;19.530;2022-11-15T04:44:47;425.60;;;381.40;;
43038;SDS011;62252;50.668;19.530;2022-11-15T04:47:40;419.52;;;376.00;;
43038;SDS011;62252;50.668;19.530;2022-11-15T04:50:34;413.60;;;369.42;;
43038;SDS011;62252;50.668;19.530;2022-11-15T04:53:25;431.58;;;388.35;;
43038;SDS011;62252;50.668;19.530;2022-11-15T04:56:17;432.67;;;389.17;;
43038;SDS011;62252;50.668;19.530;2022-11-15T04:59:09;465.45;;;418.25;;
43038;SDS011;62252;50.668;19.530;2022-11-15T05:02:03;430.77;;;386.52;;
43038;SDS011;62252;50.668;19.530;2022-11-15T05:04:55;432.98;;;388.40;;
43038;SDS011;62252;50.668;19.530;2022-11-15T05:07:44;431.70;;;386.08;;
43038;SDS011;62252;50.668;19.530;2022-11-15T05:10:35;417.80;;;373.67;;
43038;SDS011;62252;50.668;19.530;2022-11-15T05:13:27;431.35;;;386.50;;
43038;SDS011;62252;50.668;19.530;2022-11-15T05:16:19;439.63;;;393.42;;
43038;SDS011;62252;50.668;19.530;2022-11-15T05:19:13;424.70;;;380.67;;
43038;SDS011;62252;50.668;19.530;2022-11-15T05:22:05;438.80;;;393.75;;
43038;SDS011;62252;50.668;19.530;2022-11-15T05:24:56;458.92;;;412.63;;
43038;SDS011;62252;50.668;19.530;2022-11-15T05:27:48;472.17;;;424.98;;
43038;SDS011;62252;50.668;19.530;2022-11-15T05:30:40;487.00;;;439.00;;
43038;SDS011;62252;50.668;19.530;2022-11-15T05:33:32;484.83;;;435.60;;
43038;SDS011;62252;50.668;19.530;2022-11-15T05:36:30;478.48;;;432.35;;
43038;SDS011;62252;50.668;19.530;2022-11-15T05:39:26;483.48;;;435.05;;
43038;SDS011;62252;50.668;19.530;2022-11-15T05:42:17;469.92;;;423.05;;
43038;SDS011;62252;50.668;19.530;2022-11-15T05:45:09;485.65;;;436.02;;
43038;SDS011;62252;50.668;19.530;2022-11-15T05:48:03;480.45;;;433.17;;
43038;SDS011;62252;50.668;19.530;2022-11-15T05:50:59;473.52;;;424.98;;
43038;SDS011;62252;50.668;19.530;2022-11-15T05:53:55;479.13;;;432.42;;
43038;SDS011;62252;50.668;19.530;2022-11-15T05:56:49;636.95;;;524.70;;
43038;SDS011;62252;50.668;19.530;2022-11-15T05:59:41;627.47;;;552.92;;
43038;SDS011;62252;50.668;19.530;2022-11-15T06:02:36;703.35;;;572.05;;
43038;SDS011;62252;50.668;19.530;2022-11-15T06:05:28;604.92;;;540.03;;
43038;SDS011;62252;50.668;19.530;2022-11-15T06:08:19;572.30;;;510.73;;
43038;SDS011;62252;50.668;19.530;2022-11-15T06:11:14;567.83;;;507.20;;
43038;SDS011;62252;50.668;19.530;2022-11-15T06:14:05;581.63;;;521.83;;
43038;SDS011;62252;50.668;19.530;2022-11-15T06:16:57;562.65;;;505.80;;
43038;SDS011;62252;50.668;19.530;2022-11-15T06:19:49;493.17;;;443.92;;
43038;SDS011;62252;50.668;19.530;2022-11-15T06:22:41;508.65;;;457.35;;
43038;SDS011;62252;50.668;19.530;2022-11-15T06:25:33;690.17;;;613.85;;
43038;SDS011;62252;50.668;19.530;2022-11-15T06:28:27;478.20;;;430.73;;
43038;SDS011;62252;50.668;19.530;2022-11-15T06:31:20;457.45;;;411.13;;
43038;SDS011;62252;50.668;19.530;2022-11-15T06:34:11;466.77;;;419.42;;
43038;SDS011;62252;50.668;19.530;2022-11-15T06:37:03;480.45;;;431.95;;
43038;SDS011;62252;50.668;19.530;2022-11-15T06:39:55;467.13;;;419.35;;
43038;SDS011;62252;50.668;19.530;2022-11-15T06:42:46;508.35;;;458.08;;
43038;SDS011;62252;50.668;19.530;2022-11-15T06:45:43;463.15;;;415.83;;
43038;SDS011;62252;50.668;19.530;2022-11-15T06:48:36;477.05;;;430.63;;
43038;SDS011;62252;50.668;19.530;2022-11-15T06:51:28;474.63;;;427.60;;
43038;SDS011;62252;50.668;19.530;2022-11-15T06:54:20;460.17;;;415.30;;
43038;SDS011;62252;50.668;19.530;2022-11-15T06:57:11;479.67;;;433.52;;
43038;SDS011;62252;50.668;19.530;2022-11-15T07:00:03;461.98;;;415.27;;
43038;SDS011;62252;50.668;19.530;2022-11-15T07:03:02;498.25;;;449.55;;
43038;SDS011;62252;50.668;19.530;2022-11-15T07:05:54;546.92;;;495.35;;
43038;SDS011;62252;50.668;19.530;2022-11-15T07:08:47;521.25;;;471.73;;
43038;SDS011;62252;50.668;19.530;2022-11-15T07:11:39;692.03;;;616.53;;
43038;SDS011;62252;50.668;19.530;2022-11-15T07:14:30;560.13;;;503.23;;
43038;SDS011;62252;50.668;19.530;2022-11-15T07:17:22;476.45;;;429.73;;
43038;SDS011;62252;50.668;19.530;2022-11-15T07:20:17;513.83;;;465.02;;
43038;SDS011;62252;50.668;19.530;2022-11-15T07:23:09;511.73;;;463.13;;
43038;SDS011;62252;50.668;19.530;2022-11-15T07:26:00;512.83;;;464.27;;
43038;SDS011;62252;50.668;19.530;2022-11-15T07:28:52;621.40;;;559.15;;
43038;SDS011;62252;50.668;19.530;2022-11-15T07:31:46;488.02;;;439.30;;
43038;SDS011;62252;50.668;19.530;2022-11-15T07:34:38;487.38;;;440.02;;
43038;SDS011;62252;50.668;19.530;2022-11-15T07:37:33;517.13;;;467.23;;
43038;SDS011;62252;50.668;19.530;2022-11-15T07:40:24;485.92;;;439.17;;
43038;SDS011;62252;50.668;19.530;2022-11-15T07:43:16;486.08;;;439.05;;
43038;SDS011;62252;50.668;19.530;2022-11-15T07:46:08;578.00;;;518.42;;
43038;SDS011;62252;50.668;19.530;2022-11-15T07:49:00;538.97;;;483.85;;
43038;SDS011;62252;50.668;19.530;2022-11-15T07:51:54;633.97;;;566.58;;
43038;SDS011;62252;50.668;19.530;2022-11-15T07:54:48;593.35;;;530.13;;
43038;SDS011;62252;50.668;19.530;2022-11-15T07:57:40;602.30;;;538.42;;
43038;SDS011;62252;50.668;19.530;2022-11-15T08:00:32;600.75;;;537.45;;
43038;SDS011;62252;50.668;19.530;2022-11-15T08:03:25;579.45;;;518.20;;
43038;SDS011;62252;50.668;19.530;2022-11-15T08:06:16;591.92;;;529.58;;
43038;SDS011;62252;50.668;19.530;2022-11-15T08:09:08;581.40;;;519.10;;
43038;SDS011;62252;50.668;19.530;2022-11-15T08:12:03;574.60;;;514.10;;
43038;SDS011;62252;50.668;19.530;2022-11-15T08:14:55;595.70;;;532.10;;
43038;SDS011;62252;50.668;19.530;2022-11-15T08:17:52;562.95;;;504.00;;
43038;SDS011;62252;50.668;19.530;2022-11-15T08:20:45;480.60;;;432.23;;
43038;SDS011;62252;50.668;19.530;2022-11-15T08:23:36;548.63;;;494.13;;
43038;SDS011;62252;50.668;19.530;2022-11-15T08:26:28;588.90;;;534.88;;
43038;SDS011;62252;50.668;19.530;2022-11-15T08:29:22;557.17;;;505.27;;
43038;SDS011;62252;50.668;19.530;2022-11-15T08:32:14;581.67;;;523.75;;
43038;SDS011;62252;50.668;19.530;2022-11-15T08:35:07;576.92;;;520.63;;
43038;SDS011;62252;50.668;19.530;2022-11-15T08:37:59;505.95;;;457.50;;
43038;SDS011;62252;50.668;19.530;2022-11-15T08:40:50;506.38;;;457.92;;
43038;SDS011;62252;50.668;19.530;2022-11-15T08:43:43;508.58;;;458.60;;
43038;SDS011;62252;50.668;19.530;2022-11-15T08:46:37;474.90;;;428.35;;
43038;SDS011;62252;50.668;19.530;2022-11-15T08:49:29;468.05;;;421.83;;
43038;SDS011;62252;50.668;19.530;2022-11-15T08:52:21;492.27;;;443.48;;
43038;SDS011;62252;50.668;19.530;2022-11-15T08:55:13;501.50;;;453.27;;
43038;SDS011;62252;50.668;19.530;2022-11-15T08:58:04;495.02;;;447.63;;
43038;SDS011;62252;50.668;19.530;2022-11-15T09:00:56;510.58;;;461.73;;
43038;SDS011;62252;50.668;19.530;2022-11-15T09:03:50;502.27;;;454.25;;
43038;SDS011;62252;50.668;19.530;2022-11-15T09:06:42;493.50;;;444.10;;
43038;SDS011;62252;50.668;19.530;2022-11-15T09:09:34;467.67;;;419.00;;
43038;SDS011;62252;50.668;19.530;2022-11-15T09:12:25;504.80;;;453.70;;
43038;SDS011;62252;50.668;19.530;2022-11-15T09:15:20;479.55;;;430.45;;
43038;SDS011;62252;50.668;19.530;2022-11-15T09:18:11;507.67;;;456.17;;
43038;SDS011;62252;50.668;19.530;2022-11-15T09:21:09;528.30;;;475.30;;
43038;SDS011;62252;50.668;19.530;2022-11-15T09:24:01;517.13;;;466.13;;
43038;SDS011;62252;50.668;19.530;2022-11-15T09:26:55;545.50;;;493.45;;
43038;SDS011;62252;50.668;19.530;2022-11-15T09:29:48;628.67;;;564.80;;
43038;SDS011;62252;50.668;19.530;2022-11-15T09:32:42;700.25;;;626.67;;
43038;SDS011;62252;50.668;19.530;2022-11-15T09:35:34;621.97;;;560.25;;
43038;SDS011;62252;50.668;19.530;2022-11-15T09:38:29;537.60;;;486.20;;
43038;SDS011;62252;50.668;19.530;2022-11-15T09:41:25;568.38;;;513.45;;
43038;SDS011;62252;50.668;19.530;2022-11-15T09:44:37;583.90;;;524.75;;
43038;SDS011;62252;50.668;19.530;2022-11-15T09:47:38;575.47;;;522.40;;
43038;SDS011;62252;50.668;19.530;2022-11-15T09:50:41;507.15;;;457.95;;
43038;SDS011;62252;50.668;19.530;2022-11-15T09:53:22;504.60;;;454.35;;
43038;SDS011;62252;50.668;19.530;2022-11-15T09:56:03;536.42;;;485.25;;
43038;SDS011;62252;50.668;19.530;2022-11-15T09:58:46;589.53;;;533.65;;
43038;SDS011;62252;50.668;19.530;2022-11-15T10:01:35;555.03;;;502.83;;
43038;SDS011;62252;50.668;19.530;2022-11-15T10:04:15;514.85;;;464.80;;
43038;SDS011;62252;50.668;19.530;2022-11-15T10:06:49;481.67;;;433.85;;
43038;SDS011;62252;50.668;19.530;2022-11-15T10:09:28;467.70;;;420.55;;
43038;SDS011;62252;50.668;19.530;2022-11-15T10:12:11;473.75;;;426.17;;
43038;SDS011;62252;50.668;19.530;2022-11-15T10:14:46;506.55;;;457.08;;
43038;SDS011;62252;50.668;19.530;2022-11-15T10:17:28;503.65;;;454.42;;
43038;SDS011;62252;50.668;19.530;2022-11-15T10:20:17;523.67;;;473.08;;
43038;SDS011;62252;50.668;19.530;2022-11-15T10:22:53;487.55;;;439.80;;
43038;SDS011;62252;50.668;19.530;2022-11-15T10:25:29;473.52;;;426.05;;
43038;SDS011;62252;50.668;19.530;2022-11-15T10:28:09;462.15;;;415.92;;
43038;SDS011;62252;50.668;19.530;2022-11-15T10:30:48;469.25;;;421.73;;
43038;SDS011;62252;50.668;19.530;2022-11-15T10:33:34;521.50;;;471.92;;
43038;SDS011;62252;50.668;19.530;2022-11-15T10:36:19;558.90;;;505.45;;
43038;SDS011;62252;50.668;19.530;2022-11-15T10:38:55;694.05;;;619.22;;
43038;SDS011;62252;50.668;19.530;2022-11-15T10:41:30;472.23;;;425.17;;
43038;SDS011;62252;50.668;19.530;2022-11-15T10:44:23;485.77;;;437.67;;
43038;SDS011;62252;50.668;19.530;2022-11-15T10:47:05;501.00;;;452.25;;
43038;SDS011;62252;50.668;19.530;2022-11-15T10:50:00;473.88;;;425.75;;
43038;SDS011;62252;50.668;19.530;2022-11-15T10:52:36;465.88;;;419.35;;
43038;SDS011;62252;50.668;19.530;2022-11-15T10:55:22;498.02;;;448.45;;
43038;SDS011;62252;50.668;19.530;2022-11-15T10:58:01;517.92;;;466.88;;
43038;SDS011;62252;50.668;19.530;2022-11-15T11:00:40;517.45;;;467.42;;
43038;SDS011;62252;50.668;19.530;2022-11-15T11:03:27;499.27;;;451.48;;
43038;SDS011;62252;50.668;19.530;2022-11-15T11:06:04;512.38;;;463.30;;
43038;SDS011;62252;50.668;19.530;2022-11-15T11:08:39;507.77;;;459.55;;
43038;SDS011;62252;50.668;19.530;2022-11-15T11:11:25;500.77;;;452.23;;
43038;SDS011;62252;50.668;19.530;2022-11-15T11:14:17;471.48;;;425.15;;
43038;SDS011;62252;50.668;19.530;2022-11-15T11:17:04;466.80;;;419.65;;
43038;SDS011;62252;50.668;19.530;2022-11-15T11:19:51;531.55;;;480.83;;
43038;SDS011;62252;50.668;19.530;2022-11-15T11:22:34;528.33;;;477.75;;
43038;SDS011;62252;50.668;19.530;2022-11-15T11:25:18;515.55;;;464.88;;
43038;SDS011;62252;50.668;19.530;2022-11-15T11:28:16;498.75;;;450.20;;
43038;SDS011;62252;50.668;19.530;2022-11-15T11:31:00;510.73;;;460.77;;
43038;SDS011;62252;50.668;19.530;2022-11-15T11:33:50;548.47;;;495.40;;
43038;SDS011;62252;50.668;19.530;2022-11-15T11:36:35;638.00;;;575.72;;
43038;SDS011;62252;50.668;19.530;2022-11-15T11:39:18;545.05;;;491.88;;
43038;SDS011;62252;50.668;19.530;2022-11-15T11:42:01;609.33;;;551.88;;
43038;SDS011;62252;50.668;19.530;2022-11-15T11:44:45;591.70;;;533.22;;
43038;SDS011;62252;50.668;19.530;2022-11-15T11:47:28;536.03;;;484.77;;
43038;SDS011;62252;50.668;19.530;2022-11-15T11:50:10;518.90;;;469.13;;
43038;SDS011;62252;50.668;19.530;2022-11-15T11:52:54;533.08;;;480.75;;
43038;SDS011;62252;50.668;19.530;2022-11-15T11:56:04;538.20;;;483.77;;
43038;SDS011;62252;50.668;19.530;2022-11-15T11:58:47;510.83;;;460.88;;
43038;SDS011;62252;50.668;19.530;2022-11-15T12:01:23;497.70;;;448.27;;
43038;SDS011;62252;50.668;19.530;2022-11-15T12:03:59;493.45;;;444.40;;
43038;SDS011;62252;50.668;19.530;2022-11-15T12:06:45;486.98;;;438.38;;
43038;SDS011;62252;50.668;19.530;2022-11-15T12:09:23;478.33;;;430.27;;
43038;SDS011;62252;50.668;19.530;2022-11-15T12:12:06;477.30;;;428.63;;
43038;SDS011;62252;50.668;19.530;2022-11-15T12:14:45;488.33;;;438.40;;
43038;SDS011;62252;50.668;19.530;2022-11-15T12:19:57;535.90;;;483.47;;
43038;SDS011;62252;50.668;19.530;2022-11-15T12:22:37;576.28;;;520.35;;
43038;SDS011;62252;50.668;19.530;2022-11-15T12:25:17;610.53;;;550.00;;
43038;SDS011;62252;50.668;19.530;2022-11-15T12:27:55;497.90;;;448.15;;
43038;SDS011;62252;50.668;19.530;2022-11-15T12:30:39;494.60;;;445.17;;
43038;SDS011;62252;50.668;19.530;2022-11-15T12:36:09;479.77;;;432.02;;
43038;SDS011;62252;50.668;19.530;2022-11-15T12:38:53;466.90;;;420.30;;
43038;SDS011;62252;50.668;19.530;2022-11-15T12:41:29;458.48;;;412.48;;
43038;SDS011;62252;50.668;19.530;2022-11-15T12:44:03;473.27;;;425.75;;
43038;SDS011;62252;50.668;19.530;2022-11-15T12:52:16;500.02;;;451.77;;
43038;SDS011;62252;50.668;19.530;2022-11-15T12:55:02;490.48;;;442.13;;
43038;SDS011;62252;50.668;19.530;2022-11-15T13:00:59;450.70;;;404.70;;
43038;SDS011;62252;50.668;19.530;2022-11-15T13:03:33;504.30;;;455.30;;
43038;SDS011;62252;50.668;19.530;2022-11-15T13:06:39;501.77;;;453.90;;
43038;SDS011;62252;50.668;19.530;2022-11-15T13:12:47;530.75;;;480.15;;
43038;SDS011;62252;50.668;19.530;2022-11-15T13:15:35;531.15;;;480.05;;
43038;SDS011;62252;50.668;19.530;2022-11-15T13:21:19;604.50;;;547.83;;
43038;SDS011;62252;50.668;19.530;2022-11-15T13:24:13;578.72;;;526.17;;
43038;SDS011;62252;50.668;19.530;2022-11-15T13:26:48;693.78;;;630.10;;
43038;SDS011;62252;50.668;19.530;2022-11-15T13:29:25;562.53;;;509.73;;
43038;SDS011;62252;50.668;19.530;2022-11-15T13:31:58;575.53;;;524.53;;
43038;SDS011;62252;50.668;19.530;2022-11-15T13:34:32;574.85;;;522.20;;
43038;SDS011;62252;50.668;19.530;2022-11-15T13:37:09;563.08;;;509.95;;
43038;SDS011;62252;50.668;19.530;2022-11-15T13:40:10;643.90;;;581.25;;
43038;SDS011;62252;50.668;19.530;2022-11-15T13:42:53;611.85;;;555.70;;
43038;SDS011;62252;50.668;19.530;2022-11-15T13:45:30;531.05;;;482.73;;
43038;SDS011;62252;50.668;19.530;2022-11-15T13:48:04;547.10;;;499.15;;
43038;SDS011;62252;50.668;19.530;2022-11-15T13:50:40;522.33;;;474.00;;
43038;SDS011;62252;50.668;19.530;2022-11-15T13:53:14;498.75;;;451.40;;
43038;SDS011;62252;50.668;19.530;2022-11-15T13:55:47;515.03;;;466.77;;
43038;SDS011;62252;50.668;19.530;2022-11-15T13:58:21;515.45;;;467.15;;
43038;SDS011;62252;50.668;19.530;2022-11-15T14:01:01;549.72;;;499.05;;
43038;SDS011;62252;50.668;19.530;2022-11-15T14:03:41;545.95;;;496.67;;
43038;SDS011;62252;50.668;19.530;2022-11-15T14:06:24;481.05;;;434.42;;
43038;SDS011;62252;50.668;19.530;2022-11-15T14:09:01;647.20;;;585.72;;
43038;SDS011;62252;50.668;19.530;2022-11-15T14:11:58;536.97;;;486.08;;
43038;SDS011;62252;50.668;19.530;2022-11-15T14:14:33;497.38;;;450.00;;
43038;SDS011;62252;50.668;19.530;2022-11-15T14:17:32;489.70;;;441.88;;
43038;SDS011;62252;50.668;19.530;2022-11-15T14:20:20;488.05;;;441.88;;
43038;SDS011;62252;50.668;19.530;2022-11-15T14:22:59;498.60;;;451.83;;
43038;SDS011;62252;50.668;19.530;2022-11-15T14:25:34;469.17;;;422.75;;
43038;SDS011;62252;50.668;19.530;2022-11-15T14:28:12;506.92;;;459.35;;
43038;SDS011;62252;50.668;19.530;2022-11-15T14:30:48;478.83;;;433.10;;
43038;SDS011;62252;50.668;19.530;2022-11-15T14:33:27;505.65;;;457.40;;
43038;SDS011;62252;50.668;19.530;2022-11-15T14:36:03;498.25;;;450.75;;
43038;SDS011;62252;50.668;19.530;2022-11-15T14:38:37;499.95;;;451.80;;
43038;SDS011;62252;50.668;19.530;2022-11-15T14:41:17;523.15;;;474.25;;
43038;SDS011;62252;50.668;19.530;2022-11-15T14:43:52;500.33;;;453.38;;
43038;SDS011;62252;50.668;19.530;2022-11-15T14:46:26;511.17;;;463.45;;
43038;SDS011;62252;50.668;19.530;2022-11-15T14:49:04;516.30;;;467.70;;
43038;SDS011;62252;50.668;19.530;2022-11-15T14:54:11;510.05;;;462.70;;
43038;SDS011;62252;50.668;19.530;2022-11-15T14:56:44;528.33;;;479.98;;
43038;SDS011;62252;50.668;19.530;2022-11-15T14:59:18;536.35;;;487.95;;
43038;SDS011;62252;50.668;19.530;2022-11-15T15:01:51;537.63;;;487.98;;
43038;SDS011;62252;50.668;19.530;2022-11-15T15:04:27;538.40;;;488.10;;
43038;SDS011;62252;50.668;19.530;2022-11-15T15:07:00;535.55;;;485.65;;
43038;SDS011;62252;50.668;19.530;2022-11-15T15:09:33;540.28;;;490.10;;
43038;SDS011;62252;50.668;19.530;2022-11-15T15:12:11;500.65;;;453.42;;
43038;SDS011;62252;50.668;19.530;2022-11-15T15:14:48;502.58;;;456.35;;
43038;SDS011;62252;50.668;19.530;2022-11-15T15:17:22;507.83;;;460.75;;
43038;SDS011;62252;50.668;19.530;2022-11-15T15:19:58;504.95;;;457.83;;
43038;SDS011;62252;50.668;19.530;2022-11-15T15:22:31;532.25;;;482.67;;
43038;SDS011;62252;50.668;19.530;2022-11-15T15:25:13;517.05;;;469.23;;
43038;SDS011;62252;50.668;19.530;2022-11-15T15:27:54;489.10;;;441.58;;
43038;SDS011;62252;50.668;19.530;2022-11-15T15:30:28;476.85;;;431.40;;
43038;SDS011;62252;50.668;19.530;2022-11-15T15:33:02;478.40;;;432.52;;
43038;SDS011;62252;50.668;19.530;2022-11-15T15:35:39;486.63;;;440.30;;
43038;SDS011;62252;50.668;19.530;2022-11-15T15:38:12;483.33;;;436.90;;
43038;SDS011;62252;50.668;19.530;2022-11-15T15:40:45;494.48;;;446.63;;
43038;SDS011;62252;50.668;19.530;2022-11-15T15:43:18;498.70;;;451.15;;
43038;SDS011;62252;50.668;19.530;2022-11-15T15:45:52;501.35;;;454.73;;
43038;SDS011;62252;50.668;19.530;2022-11-15T15:48:25;482.98;;;436.88;;
43038;SDS011;62252;50.668;19.530;2022-11-15T15:51:01;487.55;;;441.00;;
43038;SDS011;62252;50.668;19.530;2022-11-15T15:53:35;488.60;;;440.60;;
43038;SDS011;62252;50.668;19.530;2022-11-15T15:56:08;488.23;;;441.05;;
43038;SDS011;62252;50.668;19.530;2022-11-15T15:58:42;487.92;;;440.83;;
43038;SDS011;62252;50.668;19.530;2022-11-15T16:01:15;486.17;;;439.60;;
43038;SDS011;62252;50.668;19.530;2022-11-15T16:03:50;476.73;;;430.02;;
43038;SDS011;62252;50.668;19.530;2022-11-15T16:06:36;490.13;;;441.88;;
43038;SDS011;62252;50.668;19.530;2022-11-15T16:09:12;483.60;;;437.20;;
43038;SDS011;62252;50.668;19.530;2022-11-15T16:12:06;496.70;;;449.95;;
43038;SDS011;62252;50.668;19.530;2022-11-15T16:14:40;498.95;;;452.48;;